Terminal Aerodrome Forecast
Issued by NWS

Home | Current Version | Previous Version | Text Only | Print | Product List | Glossary On
Versions: 1 2 3 4 5 6 7 8 9 10 11 12 13 14 15 16 17 18 19 20 21 22 23 24 25 26 27 28 29 30 31 32 33 34 35 36 37 38 39 40
000
FTAK31 PANC 281802 AAB
TAFADU
TAF AMD
PADU 281802Z 2818/2918 13018G26KT P6SM -RA FEW006 BKN014
      TEMPO 2818/2821 SCT014 BKN020
     FM282100 14022G32KT 5SM -RA BR FEW005 OVC012
     FM290300 15024G36KT 3SM -RA BR SCT005 OVC010
     FM291000 16014G22KT P6SM -RA SCT015 BKN020
     FM291400 21007KT P6SM SCT020 BKN030=

USA.gov is the U.S. government's official web portal to all federal, state and local government web resources and services.